createdAt,value
2022-11-04T00:01:58.457Z,50973.00
2022-11-04T00:04:27.207Z,50945.19
2022-11-04T00:06:54.431Z,50969.03
2022-11-04T00:09:22.326Z,50980.97
2022-11-04T00:12:07.837Z,50969.03
2022-11-04T00:14:34.954Z,50976.97
2022-11-04T00:17:20.217Z,50941.19
2022-11-04T00:20:06.240Z,50957.09
2022-11-04T00:22:51.602Z,50988.91
2022-11-04T00:25:37.181Z,50957.09
2022-11-04T00:28:29.145Z,50988.91
2022-11-04T00:31:19.475Z,50980.97
2022-11-04T00:33:46.852Z,50949.16
2022-11-04T00:36:13.478Z,50988.91
2022-11-04T00:38:40.618Z,50937.22
2022-11-04T00:41:26.434Z,50961.06
2022-11-04T00:43:53.938Z,50984.94
2022-11-04T00:46:20.565Z,50971.03
2022-11-04T00:48:47.309Z,50971.03
2022-11-04T00:53:45.616Z,50947.16
2022-11-04T00:56:12.169Z,51000.84
2022-11-04T00:58:38.748Z,50967.03
2022-11-04T01:01:12.560Z,50996.84
2022-11-04T01:03:39.487Z,50953.13
2022-11-04T01:06:06.300Z,50980.97
2022-11-04T01:08:32.966Z,50969.03
2022-11-04T01:11:06.348Z,50955.13
2022-11-04T01:13:33.000Z,50973.00
2022-11-04T01:16:00.064Z,50961.06
2022-11-04T01:18:27.061Z,50957.09
2022-11-04T01:20:53.738Z,50971.03
2022-11-04T01:23:20.348Z,50937.22
2022-11-04T01:25:47.084Z,50988.91
2022-11-04T01:28:13.597Z,50953.13
2022-11-04T01:30:40.281Z,50976.97
2022-11-04T01:33:06.899Z,50949.16
2022-11-04T01:35:33.501Z,50965.06
2022-11-04T01:38:00.114Z,50969.03
2022-11-04T01:40:26.898Z,50933.25
2022-11-04T01:42:53.621Z,51002.81
2022-11-04T01:45:20.740Z,50945.19
2022-11-04T01:48:01.816Z,50961.06
2022-11-04T01:50:29.205Z,51000.84
2022-11-04T01:53:12.562Z,50953.13
2022-11-04T01:55:45.970Z,50949.16
2022-11-04T01:58:15.155Z,50969.03
2022-11-04T02:00:42.712Z,50998.84
2022-11-04T02:03:09.543Z,50967.03
2022-11-04T02:05:37.785Z,50957.09
2022-11-04T02:08:05.922Z,50988.91
2022-11-04T02:10:32.635Z,51008.78
2022-11-04T02:13:00.991Z,50957.09
2022-11-04T02:15:33.726Z,50953.13
2022-11-04T02:18:03.199Z,50973.00
2022-11-04T02:20:36.388Z,50988.91
2022-11-04T02:23:21.665Z,50957.09
2022-11-04T02:25:57.580Z,50949.16
2022-11-04T02:28:42.800Z,50953.13
2022-11-04T02:31:12.102Z,50998.84
2022-11-04T02:33:53.925Z,50969.03
2022-11-04T02:36:32.553Z,51014.75
2022-11-04T02:39:08.886Z,50965.06
2022-11-04T02:41:35.489Z,50973.00
2022-11-04T02:44:13.374Z,50980.97
2022-11-04T02:46:45.694Z,51016.72
2022-11-04T02:49:15.801Z,50994.88
2022-11-04T02:51:56.246Z,50976.97
2022-11-04T02:54:22.865Z,50988.91
2022-11-04T02:56:51.233Z,50988.91
2022-11-04T02:59:22.408Z,50992.88
2022-11-04T03:01:50.823Z,50988.91
2022-11-04T03:04:20.545Z,50949.16
2022-11-04T03:06:49.101Z,51002.81
2022-11-04T03:09:16.891Z,50984.94
2022-11-04T03:11:45.927Z,50953.13
2022-11-04T03:14:31.949Z,50961.06
2022-11-04T03:17:00.940Z,50996.84
2022-11-04T03:19:42.780Z,51000.84
2022-11-04T03:22:17.600Z,50984.94
2022-11-04T03:24:46.406Z,50971.03
2022-11-04T03:27:22.246Z,50992.88
2022-11-04T03:29:51.881Z,51032.63
2022-11-04T03:32:38.713Z,50937.22
2022-11-04T03:35:06.187Z,51002.81
2022-11-04T03:37:33.518Z,50984.94
2022-11-04T03:40:00.364Z,50976.97
2022-11-04T03:42:27.529Z,51048.53
2022-11-04T03:44:55.300Z,50973.00
2022-11-04T03:47:24.508Z,50992.88
2022-11-04T03:49:52.554Z,50961.06
2022-11-04T03:52:19.785Z,51016.72
2022-11-04T03:54:47.274Z,50992.88
2022-11-04T03:57:20.305Z,51010.78
2022-11-04T04:00:07.119Z,50986.91
2022-11-04T04:02:44.222Z,51028.66
2022-11-04T04:05:21.464Z,50984.94
2022-11-04T04:07:59.397Z,50980.97
2022-11-04T04:10:41.680Z,50969.03
2022-11-04T04:13:18.901Z,50973.00
2022-11-04T04:15:48.972Z,51012.75
2022-11-04T04:18:17.067Z,50988.91
2022-11-04T04:20:47.795Z,50992.88
2022-11-04T04:23:39.559Z,50976.97
2022-11-04T04:26:27.903Z,50980.97
2022-11-04T04:28:55.899Z,51004.81
2022-11-04T04:31:41.968Z,50969.03
2022-11-04T04:34:09.712Z,51016.72
2022-11-04T04:36:42.840Z,50975.00
2022-11-04T04:39:28.812Z,51004.81
2022-11-04T04:42:14.175Z,51008.78
2022-11-04T04:45:00.989Z,50976.97
2022-11-04T04:47:31.106Z,50996.84
2022-11-04T04:50:01.265Z,50988.91
2022-11-04T04:52:30.104Z,51012.75
2022-11-04T04:54:56.715Z,50992.88
2022-11-04T04:57:23.313Z,51020.72
2022-11-04T04:59:49.944Z,51004.81
2022-11-04T05:02:16.779Z,51020.72
2022-11-04T05:04:43.597Z,51008.78
2022-11-04T05:07:10.184Z,50980.97
2022-11-04T05:09:37.094Z,51018.72
2022-11-04T05:12:03.869Z,51008.78
2022-11-04T05:14:30.630Z,51000.84
2022-11-04T05:16:57.340Z,51028.66
2022-11-04T05:19:23.885Z,51012.75
2022-11-04T05:21:50.446Z,50992.88
2022-11-04T05:24:17.093Z,50996.84
2022-11-04T05:26:43.730Z,51024.69
2022-11-04T05:29:10.686Z,50992.88
2022-11-04T05:31:37.585Z,50973.00
2022-11-04T05:34:05.776Z,50969.03
2022-11-04T05:36:35.332Z,50975.00
2022-11-04T05:39:02.011Z,50996.84
2022-11-04T05:41:28.722Z,50996.84
2022-11-04T05:43:56.301Z,51004.81
2022-11-04T05:46:23.537Z,51010.78
2022-11-04T05:48:50.630Z,50975.00
2022-11-04T05:51:18.965Z,50978.97
2022-11-04T05:53:45.763Z,51000.84
2022-11-04T05:56:12.352Z,50994.88
2022-11-04T05:58:38.987Z,51022.69
2022-11-04T06:01:12.644Z,51016.72
2022-11-04T06:03:39.257Z,51040.59
2022-11-04T06:06:05.869Z,51016.72
2022-11-04T06:08:32.559Z,51026.69
2022-11-04T06:11:01.049Z,50976.97
2022-11-04T06:13:27.667Z,51024.69
2022-11-04T06:15:54.350Z,51040.59
2022-11-04T06:18:20.977Z,51034.63
2022-11-04T06:20:47.639Z,50980.97
2022-11-04T06:23:14.247Z,50988.91
2022-11-04T06:25:40.884Z,51020.72
2022-11-04T06:28:07.759Z,51012.75
2022-11-04T06:30:34.536Z,51022.69
2022-11-04T06:33:01.124Z,51004.81
2022-11-04T06:35:27.782Z,50980.97
2022-11-04T06:37:55.016Z,50992.88
2022-11-04T06:40:21.631Z,51024.69
2022-11-04T06:42:49.259Z,51036.63
2022-11-04T06:45:15.994Z,51000.84
2022-11-04T06:47:42.573Z,51018.72
2022-11-04T06:50:09.363Z,50984.94
2022-11-04T06:52:41.152Z,51020.72
2022-11-04T06:55:09.352Z,51024.69
2022-11-04T06:57:35.923Z,51024.69
2022-11-04T07:00:02.653Z,51044.56
2022-11-04T07:02:29.436Z,51032.63
2022-11-04T07:07:29.027Z,50992.88
2022-11-04T07:09:55.550Z,51040.59
2022-11-04T07:12:23.575Z,50996.84
2022-11-04T07:14:50.404Z,51016.72
2022-11-04T07:17:17.006Z,50984.94
2022-11-04T07:19:43.571Z,50992.88
2022-11-04T07:22:10.253Z,51040.59
2022-11-04T07:24:37.176Z,51008.78
2022-11-04T07:27:03.863Z,51000.84
2022-11-04T07:29:30.427Z,51008.78
2022-11-04T07:31:57.029Z,51008.78
2022-11-04T07:34:23.780Z,50996.84
2022-11-04T07:36:50.418Z,51036.63
2022-11-04T07:39:17.095Z,51012.75
2022-11-04T07:41:43.696Z,51034.63
2022-11-04T07:44:13.538Z,51016.72
2022-11-04T07:46:41.412Z,50992.88
2022-11-04T07:49:08.144Z,51008.78
2022-11-04T07:51:34.962Z,51008.78
2022-11-04T07:54:01.603Z,51002.81
2022-11-04T07:56:28.181Z,51040.59
2022-11-04T07:58:56.462Z,51032.63
2022-11-04T08:01:23.712Z,51056.50
2022-11-04T08:03:50.918Z,50998.84
2022-11-04T08:06:18.362Z,51002.81
2022-11-04T08:08:45.027Z,51008.78
2022-11-04T08:11:17.317Z,51028.66
2022-11-04T08:13:45.334Z,51032.63
2022-11-04T08:16:13.411Z,51002.81
2022-11-04T08:18:40.359Z,51036.63
2022-11-04T08:21:07.102Z,51040.59
2022-11-04T08:23:34.339Z,50988.91
2022-11-04T08:26:01.216Z,51000.84
2022-11-04T08:28:29.554Z,51056.50
2022-11-04T08:30:58.000Z,51010.78
2022-11-04T08:33:25.261Z,51088.28
2022-11-04T08:35:51.906Z,51036.63
2022-11-04T08:38:18.493Z,51008.78
2022-11-04T08:40:45.273Z,51034.63
2022-11-04T08:43:12.285Z,51024.69
2022-11-04T08:45:46.447Z,51024.69
2022-11-04T08:48:13.422Z,51044.56
2022-11-04T08:50:40.425Z,51036.63
2022-11-04T08:53:07.360Z,51004.81
2022-11-04T08:55:34.728Z,51060.47
2022-11-04T08:58:01.421Z,51004.81
2022-11-04T09:00:28.061Z,50996.84
2022-11-04T09:02:55.703Z,51004.81
2022-11-04T09:05:22.918Z,51004.81
2022-11-04T09:07:49.547Z,51016.72
2022-11-04T09:10:17.328Z,51032.63
2022-11-04T09:12:44.544Z,51018.72
2022-11-04T09:15:11.304Z,51030.66
2022-11-04T09:17:38.069Z,51044.56
2022-11-04T09:20:05.171Z,50998.84
2022-11-04T09:22:31.999Z,51024.69
2022-11-04T09:24:58.982Z,51024.69
2022-11-04T09:27:25.598Z,51036.63
2022-11-04T09:29:52.258Z,51056.50
2022-11-04T09:32:18.880Z,51020.72
2022-11-04T09:34:45.506Z,51038.59
2022-11-04T09:37:13.334Z,51028.66
2022-11-04T09:39:39.971Z,51044.56
2022-11-04T09:42:25.245Z,50992.88
2022-11-04T09:45:21.146Z,51026.69
2022-11-04T09:47:49.698Z,51040.59
2022-11-04T09:50:22.981Z,51000.84
2022-11-04T09:52:54.237Z,51024.69
2022-11-04T09:55:24.207Z,51024.69
2022-11-04T09:57:55.190Z,51036.63
2022-11-04T10:00:22.026Z,51032.63
2022-11-04T10:03:04.157Z,51028.66
2022-11-04T10:05:38.533Z,51024.69
2022-11-04T10:08:18.080Z,51032.63
2022-11-04T10:11:07.242Z,51048.53
2022-11-04T10:13:43.005Z,51024.69
2022-11-04T10:16:18.336Z,51004.81
2022-11-04T10:18:47.728Z,51044.56
2022-11-04T10:21:14.487Z,51056.50
2022-11-04T10:23:46.045Z,51044.56
2022-11-04T10:26:19.800Z,51018.72
2022-11-04T10:28:52.500Z,51032.63
2022-11-04T10:31:19.127Z,51024.69
2022-11-04T10:33:48.762Z,51044.56
2022-11-04T10:36:16.946Z,51008.78
2022-11-04T10:38:54.909Z,51024.69
2022-11-04T10:41:24.800Z,51016.72
2022-11-04T10:43:52.501Z,51016.72
2022-11-04T10:46:28.329Z,51004.81
2022-11-04T10:48:58.371Z,51016.72
2022-11-04T10:51:25.381Z,51028.66
2022-11-04T10:53:56.687Z,51004.81
2022-11-04T10:56:39.666Z,51034.63
2022-11-04T10:59:20.322Z,51004.81
2022-11-04T11:02:05.538Z,51020.72
2022-11-04T11:04:33.470Z,51036.63
2022-11-04T11:07:04.510Z,51004.81
2022-11-04T11:09:33.563Z,51018.72
2022-11-04T11:12:01.964Z,51000.84
2022-11-04T11:14:28.549Z,51020.72
2022-11-04T11:16:55.984Z,51000.84
2022-11-04T11:19:24.933Z,51016.72
2022-11-04T11:21:55.777Z,51012.75
2022-11-04T11:24:23.945Z,51034.63
2022-11-04T11:26:52.884Z,51034.63
2022-11-04T11:29:24.437Z,51008.78
2022-11-04T11:31:52.185Z,51012.75
2022-11-04T11:34:26.664Z,51020.72
2022-11-04T11:36:55.104Z,50992.88
2022-11-04T11:39:24.249Z,51040.59
2022-11-04T11:41:53.507Z,51004.81
2022-11-04T11:44:25.499Z,50992.88
2022-11-04T11:46:54.787Z,51012.75
2022-11-04T11:49:32.655Z,50980.97
2022-11-04T11:52:17.892Z,51020.72
2022-11-04T11:54:47.654Z,51008.78
2022-11-04T11:57:25.540Z,51018.72
2022-11-04T12:02:47.203Z,51036.63
2022-11-04T12:11:07.130Z,50988.91
2022-11-04T12:13:41.882Z,51024.69
2022-11-04T12:16:23.561Z,51002.81
2022-11-04T12:19:02.333Z,50994.88
2022-11-04T12:21:37.888Z,51032.63
2022-11-04T12:24:23.524Z,51020.72
2022-11-04T12:26:50.117Z,51008.78
2022-11-04T12:29:37.165Z,50996.84
2022-11-04T12:32:15.980Z,50988.91
2022-11-04T12:34:51.747Z,51024.69
2022-11-04T12:37:27.272Z,50996.84
2022-11-04T12:40:12.767Z,51002.81
2022-11-04T12:42:57.593Z,51012.75
2022-11-04T12:45:38.679Z,50986.91
2022-11-04T12:48:11.476Z,51036.63
2022-11-04T12:50:59.472Z,50996.84
2022-11-04T12:53:26.045Z,50976.97
2022-11-04T12:56:10.440Z,51032.63
2022-11-04T12:58:48.987Z,51018.72
2022-11-04T13:01:23.649Z,51008.78
2022-11-04T13:03:53.973Z,50988.91
2022-11-04T13:06:28.479Z,51008.78
2022-11-04T13:09:08.940Z,50971.03
2022-11-04T13:11:55.839Z,51004.81
2022-11-04T13:14:32.327Z,51000.84
2022-11-04T13:17:01.073Z,51008.78
2022-11-04T13:19:31.650Z,51080.34
2022-11-04T13:22:01.575Z,51012.75
2022-11-04T13:24:31.682Z,51028.66
2022-11-04T13:27:00.394Z,51012.75
2022-11-04T13:29:30.259Z,50996.84
2022-11-04T13:32:05.144Z,51048.53
2022-11-04T13:34:45.877Z,51040.59
2022-11-04T13:37:21.268Z,50998.84
2022-11-04T13:40:06.692Z,51018.72
2022-11-04T13:42:42.535Z,51042.56
2022-11-04T13:45:14.163Z,51040.59
2022-11-04T13:47:53.353Z,51028.66
2022-11-04T13:50:32.953Z,51032.63
2022-11-04T13:52:59.967Z,51024.69
2022-11-04T13:55:26.654Z,50984.94
2022-11-04T13:58:01.763Z,51040.59
2022-11-04T14:00:29.182Z,51052.50
2022-11-04T14:02:58.202Z,51008.78
2022-11-04T14:05:27.729Z,51026.69
2022-11-04T14:08:03.360Z,51024.69
2022-11-04T14:10:56.552Z,50990.91
2022-11-04T14:13:33.369Z,51004.81
2022-11-04T14:16:02.781Z,51032.63
2022-11-04T14:18:31.412Z,51036.63
2022-11-04T14:21:06.087Z,50988.91
2022-11-04T14:23:34.749Z,51032.63
2022-11-04T14:26:02.754Z,50998.84
2022-11-04T14:28:32.436Z,51044.56
2022-11-04T14:31:00.508Z,50998.84
2022-11-04T14:33:39.307Z,50984.94
2022-11-04T14:36:21.313Z,51000.84
2022-11-04T14:38:57.031Z,51040.59
2022-11-04T14:41:26.762Z,51016.72
2022-11-04T14:43:54.767Z,50996.84
2022-11-04T14:46:34.516Z,51012.75
2022-11-04T14:49:02.245Z,51040.59
2022-11-04T14:51:33.311Z,51040.59
2022-11-04T14:54:04.298Z,51048.53
2022-11-04T14:56:30.881Z,51016.72
2022-11-04T14:59:03.270Z,51048.53
2022-11-04T15:01:35.046Z,51036.63
2022-11-04T15:04:26.598Z,51046.56
2022-11-04T15:07:00.678Z,51022.69
2022-11-04T15:09:31.785Z,51052.50
2022-11-04T15:12:20.660Z,51016.72
2022-11-04T15:14:47.563Z,51040.59
2022-11-04T15:17:17.819Z,50998.84
2022-11-04T15:19:48.138Z,51032.63
2022-11-04T15:22:14.990Z,51044.56
2022-11-04T15:24:42.533Z,51032.63
2022-11-04T15:27:28.917Z,51052.50
2022-11-04T15:30:05.355Z,51024.69
2022-11-04T15:32:32.246Z,51028.66
2022-11-04T15:34:59.619Z,51052.50
2022-11-04T15:37:28.929Z,51032.63
2022-11-04T15:39:57.806Z,51032.63
2022-11-04T15:42:43.765Z,51040.59
2022-11-04T15:45:22.643Z,51020.72
2022-11-04T15:47:49.366Z,51028.66
2022-11-04T15:50:22.434Z,51092.28
2022-11-04T15:52:53.097Z,51036.63
2022-11-04T15:55:21.141Z,51044.56
2022-11-04T15:57:48.798Z,51020.72
2022-11-04T16:00:15.422Z,51028.66
2022-11-04T16:02:50.440Z,51036.63
2022-11-04T16:05:17.145Z,51052.50
2022-11-04T16:07:44.803Z,51058.47
2022-11-04T16:10:33.152Z,51060.47
2022-11-04T16:13:00.901Z,51038.59
2022-11-04T16:15:34.883Z,51072.41
2022-11-04T16:18:02.367Z,51056.50
2022-11-04T16:20:31.025Z,51028.66
2022-11-04T16:22:59.569Z,51056.50
2022-11-04T16:25:29.701Z,51036.63
2022-11-04T16:27:56.425Z,51044.56
2022-11-04T16:30:24.578Z,51080.34
2022-11-04T16:32:51.188Z,51064.44
2022-11-04T16:35:22.085Z,51044.56
2022-11-04T16:37:49.461Z,51068.41
2022-11-04T16:40:16.373Z,51092.28
2022-11-04T16:42:43.721Z,51024.69
2022-11-04T16:45:20.417Z,51028.66
2022-11-04T16:47:47.158Z,51052.50
2022-11-04T16:50:17.557Z,51008.78
2022-11-04T16:52:45.029Z,51020.72
2022-11-04T16:55:12.484Z,51062.47
2022-11-04T16:57:39.342Z,51064.44
2022-11-04T17:00:09.324Z,51052.50
2022-11-04T17:02:41.165Z,51032.63
2022-11-04T17:05:08.896Z,51024.69
2022-11-04T17:07:52.143Z,51050.53
2022-11-04T17:10:26.293Z,51036.63
2022-11-04T17:12:53.135Z,51058.47
2022-11-04T17:15:19.819Z,51064.44
2022-11-04T17:17:46.553Z,51064.44
2022-11-04T17:20:14.784Z,51044.56
2022-11-04T17:22:41.694Z,51028.66
2022-11-04T17:25:27.610Z,51060.47
2022-11-04T17:27:54.291Z,51046.56
2022-11-04T17:30:21.930Z,51056.50
2022-11-04T17:32:48.885Z,51068.41
2022-11-04T17:35:16.741Z,51012.75
2022-11-04T17:37:43.724Z,51022.69
2022-11-04T17:40:17.145Z,51040.59
2022-11-04T17:43:06.967Z,51088.28
2022-11-04T17:45:38.021Z,51038.59
2022-11-04T17:48:05.131Z,51024.69
2022-11-04T17:50:32.202Z,51060.47
2022-11-04T17:52:59.177Z,51048.53
2022-11-04T17:55:27.675Z,51038.59
2022-11-04T17:57:54.482Z,51084.31
2022-11-04T18:00:24.434Z,51076.38
2022-11-04T18:02:51.144Z,51078.34
2022-11-04T18:05:17.819Z,51054.50
2022-11-04T18:07:44.461Z,51054.50
2022-11-04T18:10:11.409Z,51036.63
2022-11-04T18:12:38.109Z,51064.44
2022-11-04T18:15:06.105Z,51060.47
2022-11-04T18:17:36.380Z,51064.44
2022-11-04T18:20:03.172Z,51074.38
2022-11-04T18:22:29.735Z,51016.72
2022-11-04T18:24:56.467Z,51064.44
2022-11-04T18:27:23.178Z,51052.50
2022-11-04T18:29:49.776Z,51060.47
2022-11-04T18:32:16.344Z,51024.69
2022-11-04T18:34:43.058Z,51064.44
2022-11-04T18:37:10.181Z,51056.50
2022-11-04T18:39:38.248Z,51060.47
2022-11-04T18:42:04.904Z,51048.53
2022-11-04T18:44:31.461Z,51088.28
2022-11-04T18:46:58.063Z,51052.50
2022-11-04T18:49:24.640Z,51048.53
2022-11-04T18:51:51.355Z,51072.41
2022-11-04T18:54:17.954Z,51072.41
2022-11-04T18:56:44.622Z,51060.47
2022-11-04T18:59:12.873Z,51094.25
2022-11-04T19:01:39.710Z,51072.41
2022-11-04T19:04:06.437Z,51052.50
2022-11-04T19:06:34.868Z,51060.47
2022-11-04T19:09:25.270Z,51036.63
2022-11-04T19:12:12.451Z,51016.72
2022-11-04T19:14:39.096Z,51036.63
2022-11-04T19:17:05.741Z,51060.47
2022-11-04T19:19:32.338Z,51092.28
2022-11-04T19:21:58.977Z,51044.56
2022-11-04T19:24:25.636Z,51036.63
2022-11-04T19:26:52.222Z,51040.59
2022-11-04T19:29:18.836Z,51056.50
2022-11-04T19:31:45.503Z,51054.50
2022-11-04T19:34:12.174Z,51042.56
2022-11-04T19:36:38.852Z,51076.38
2022-11-04T19:39:07.422Z,51056.50
2022-11-04T19:41:52.322Z,51104.19
2022-11-04T19:44:20.201Z,51032.63
2022-11-04T19:46:47.003Z,51044.56
2022-11-04T19:49:13.924Z,51060.47
2022-11-04T19:51:41.140Z,51056.50
2022-11-04T19:54:08.111Z,51068.41
2022-11-04T19:56:36.404Z,51052.50
2022-11-04T19:59:06.900Z,51064.44
2022-11-04T20:01:35.059Z,51062.47
2022-11-04T20:04:02.878Z,51080.34
2022-11-04T20:06:32.093Z,51032.63
2022-11-04T20:09:01.750Z,51032.63
2022-11-04T20:11:28.426Z,51048.53
2022-11-04T20:13:55.117Z,51090.28
2022-11-04T20:16:23.425Z,51068.41
2022-11-04T20:18:52.036Z,51060.47
2022-11-04T20:21:20.529Z,51064.44
2022-11-04T20:23:47.181Z,51068.41
2022-11-04T20:26:20.568Z,51060.47
2022-11-04T20:28:47.441Z,51032.63
2022-11-04T20:31:18.561Z,51080.34
2022-11-04T20:33:46.121Z,51036.63
2022-11-04T20:36:13.831Z,51028.66
2022-11-04T20:38:40.436Z,51066.44
2022-11-04T20:41:08.422Z,51062.47
2022-11-04T20:43:35.953Z,51080.34
2022-11-04T20:46:22.241Z,51068.41
2022-11-04T20:48:49.062Z,51064.44
2022-11-04T20:51:20.362Z,51068.41
2022-11-04T20:53:47.853Z,51060.47
2022-11-04T20:56:15.851Z,51040.59
2022-11-04T20:58:43.465Z,51056.50
2022-11-04T21:01:15.103Z,51036.63
2022-11-04T21:03:43.066Z,51024.69
2022-11-04T21:06:12.826Z,51048.53
2022-11-04T21:08:39.617Z,51052.50
2022-11-04T21:11:07.173Z,51050.53
2022-11-04T21:13:33.915Z,51048.53
2022-11-04T21:16:00.959Z,51084.31
2022-11-04T21:18:27.883Z,51050.53
2022-11-04T21:20:54.785Z,51064.44
2022-11-04T21:23:21.564Z,51048.53
2022-11-04T21:25:49.643Z,51086.31
2022-11-04T21:28:16.564Z,51064.44
2022-11-04T21:30:44.356Z,51056.50
2022-11-04T21:33:11.334Z,51052.50
2022-11-04T21:35:38.497Z,51052.50
2022-11-04T21:38:06.836Z,51060.47
2022-11-04T21:40:33.908Z,51088.28
2022-11-04T21:43:00.828Z,51036.63
2022-11-04T21:45:27.429Z,51080.34
2022-11-04T21:47:54.241Z,51080.34
2022-11-04T21:50:20.896Z,51020.72
2022-11-04T21:52:47.557Z,51068.41
2022-11-04T21:55:14.502Z,51024.69
2022-11-04T21:57:41.140Z,51044.56
2022-11-04T22:00:09.182Z,51104.19
2022-11-04T22:02:43.544Z,51062.47
2022-11-04T22:05:10.582Z,51068.41
2022-11-04T22:07:56.230Z,51088.28
2022-11-04T22:10:23.657Z,51076.38
2022-11-04T22:12:51.421Z,51072.41
2022-11-04T22:15:38.750Z,51076.38
2022-11-04T22:18:06.113Z,51068.41
2022-11-04T22:20:34.658Z,51032.63
2022-11-04T22:23:01.449Z,51036.63
2022-11-04T22:25:28.078Z,51088.28
2022-11-04T22:27:54.641Z,51040.59
2022-11-04T22:30:21.263Z,51100.22
2022-11-04T22:32:47.945Z,51082.34
2022-11-04T22:35:14.693Z,51056.50
2022-11-04T22:37:41.306Z,51068.41
2022-11-04T22:40:08.236Z,51060.47
2022-11-04T22:42:34.834Z,51104.19
2022-11-04T22:45:01.414Z,51078.34
2022-11-04T22:47:28.600Z,51086.31
2022-11-04T22:49:55.208Z,51070.41
2022-11-04T22:52:21.803Z,51044.56
2022-11-04T22:54:48.377Z,51090.28
2022-11-04T22:57:14.964Z,51096.25
2022-11-04T22:59:41.565Z,51060.47
2022-11-04T23:02:08.239Z,51084.31
2022-11-04T23:04:34.877Z,51096.25
2022-11-04T23:07:01.410Z,51072.41
2022-11-04T23:09:28.081Z,51038.59
2022-11-04T23:12:13.212Z,51080.34
2022-11-04T23:14:42.776Z,51064.44
2022-11-04T23:17:35.398Z,51060.47
2022-11-04T23:20:02.490Z,51070.41
2022-11-04T23:22:47.628Z,51056.50
2022-11-04T23:25:14.564Z,51096.25
2022-11-04T23:28:02.761Z,51032.63
2022-11-04T23:30:30.759Z,51024.69
2022-11-04T23:32:58.426Z,51096.25
2022-11-04T23:35:45.471Z,51104.19
2022-11-04T23:38:12.155Z,51094.25
2022-11-04T23:40:39.229Z,51044.56
2022-11-04T23:43:06.258Z,51066.44
2022-11-04T23:45:51.928Z,51066.44
2022-11-04T23:48:37.228Z,51102.22
2022-11-04T23:51:22.451Z,51106.19
2022-11-04T23:54:07.698Z,51064.44
2022-11-04T23:56:52.946Z,51080.34
2022-11-04T23:59:38.205Z,51084.31
